<?xml version="1.0" encoding="UTF-8" standalone="no" ?><gpx xmlns="http://www.topografix.com/GPX/1/1" xmlns:gpxx="http://www.garmin.com/xmlschemas/GpxExtensions/v3" xmlns:wptx1="http://www.garmin.com/xmlschemas/WaypointExtension/v1" xmlns:gpxtpx="http://www.garmin.com/xmlschemas/TrackPointExtension/v1" creator="GuideVTT.com" version="1.1" xmlns:xsi="http://www.w3.org/2001/XMLSchema-instance" xsi:schemaLocation="http://www.topografix.com/GPX/1/1 http://www.topografix.com/GPX/1/1/gpx.xsd http://www.garmin.com/xmlschemas/GpxExtensions/v3 http://www8.garmin.com/xmlschemas/GpxExtensionsv3.xsd http://www.garmin.com/xmlschemas/WaypointExtension/v1 http://www8.garmin.com/xmlschemas/WaypointExtensionv1.xsd http://www.garmin.com/xmlschemas/TrackPointExtension/v1 http://www.garmin.com/xmlschemas/TrackPointExtensionv1.xsd">
<metadata><link href="http://www.garmin.com"><text>Garmin International</text></link><time>2013-06-22T15:13:50Z</time></metadata>
<trk><name>eison2.gpx</name><extensions><gpxx:TrackExtension><gpxx:DisplayColor>Cyan</gpxx:DisplayColor></gpxx:TrackExtension></extensions><trkseg>
<trkpt lat="46.15356965" lon="7.46747752"><ele></ele><time>2014-4-27T11:26:39Z</time></trkpt>
<trkpt lat="46.15356563" lon="7.46746394"><ele></ele><time>2014-4-27T11:26:42Z</time></trkpt>
<trkpt lat="46.15358105" lon="7.46735028"><ele></ele><time>2014-4-27T11:26:45Z</time></trkpt>
<trkpt lat="46.15364240" lon="7.46735388"><ele></ele><time>2014-4-27T11:26:48Z</time></trkpt>
<trkpt lat="46.15363704" lon="7.46736059"><ele></ele><time>2014-4-27T11:26:51Z</time></trkpt>
<trkpt lat="46.15364710" lon="7.46737895"><ele></ele><time>2014-4-27T11:26:54Z</time></trkpt>
<trkpt lat="46.15363184" lon="7.46735263"><ele></ele><time>2014-4-27T11:26:57Z</time></trkpt>
<trkpt lat="46.15362975" lon="7.46735120"><ele></ele><time>2014-4-27T11:27:0Z</time></trkpt>
<trkpt lat="46.15363109" lon="7.46735221"><ele></ele><time>2014-4-27T11:27:3Z</time></trkpt>
<trkpt lat="46.15363402" lon="7.46735531"><ele></ele><time>2014-4-27T11:27:6Z</time></trkpt>
<trkpt lat="46.15367342" lon="7.46733075"><ele></ele><time>2014-4-27T11:27:9Z</time></trkpt>
<trkpt lat="46.15372580" lon="7.46731508"><ele></ele><time>2014-4-27T11:27:12Z</time></trkpt>
<trkpt lat="46.15378431" lon="7.46729907"><ele></ele><time>2014-4-27T11:27:15Z</time></trkpt>
<trkpt lat="46.15383167" lon="7.46725456"><ele></ele><time>2014-4-27T11:27:18Z</time></trkpt>
<trkpt lat="46.15385237" lon="7.46720133"><ele></ele><time>2014-4-27T11:27:21Z</time></trkpt>
<trkpt lat="46.15387115" lon="7.46714174"><ele></ele><time>2014-4-27T11:27:24Z</time></trkpt>
<trkpt lat="46.15388221" lon="7.46711098"><ele></ele><time>2014-4-27T11:27:27Z</time></trkpt>
<trkpt lat="46.15390635" lon="7.46709933"><ele></ele><time>2014-4-27T11:27:30Z</time></trkpt>
<trkpt lat="46.15394918" lon="7.46711609"><ele></ele><time>2014-4-27T11:27:33Z</time></trkpt>
<trkpt lat="46.15399964" lon="7.46717359"><ele></ele><time>2014-4-27T11:27:36Z</time></trkpt>
<trkpt lat="46.15404708" lon="7.46722003"><ele></ele><time>2014-4-27T11:27:39Z</time></trkpt>
<trkpt lat="46.15407215" lon="7.46726168"><ele></ele><time>2014-4-27T11:27:42Z</time></trkpt>
<trkpt lat="46.15410986" lon="7.46729957"><ele></ele><time>2014-4-27T11:27:45Z</time></trkpt>
<trkpt lat="46.15415772" lon="7.46732966"><ele></ele><time>2014-4-27T11:27:48Z</time></trkpt>
<trkpt lat="46.15420131" lon="7.46734751"><ele></ele><time>2014-4-27T11:27:51Z</time></trkpt>
<trkpt lat="46.15420802" lon="7.46735975"><ele></ele><time>2014-4-27T11:27:54Z</time></trkpt>
<trkpt lat="46.15423392" lon="7.46737425"><ele></ele><time>2014-4-27T11:27:57Z</time></trkpt>
<trkpt lat="46.15427675" lon="7.46739227"><ele></ele><time>2014-4-27T11:28:0Z</time></trkpt>
<trkpt lat="46.15433810" lon="7.46742371"><ele></ele><time>2014-4-27T11:28:3Z</time></trkpt>
<trkpt lat="46.15439552" lon="7.46745128"><ele></ele><time>2014-4-27T11:28:6Z</time></trkpt>
<trkpt lat="46.15443751" lon="7.46747442"><ele></ele><time>2014-4-27T11:28:9Z</time></trkpt>
<trkpt lat="46.15448521" lon="7.46749537"><ele></ele><time>2014-4-27T11:28:12Z</time></trkpt>
<trkpt lat="46.15451731" lon="7.46749613"><ele></ele><time>2014-4-27T11:28:15Z</time></trkpt>
<trkpt lat="46.15456131" lon="7.46751230"><ele></ele><time>2014-4-27T11:28:18Z</time></trkpt>
<trkpt lat="46.15460297" lon="7.46750602"><ele></ele><time>2014-4-27T11:28:21Z</time></trkpt>
<trkpt lat="46.15465418" lon="7.46749093"><ele></ele><time>2014-4-27T11:28:24Z</time></trkpt>
<trkpt lat="46.15470473" lon="7.46747391"><ele></ele><time>2014-4-27T11:28:27Z</time></trkpt>
<trkpt lat="46.15475007" lon="7.46745849"><ele></ele><time>2014-4-27T11:28:30Z</time></trkpt>
<trkpt lat="46.15479986" lon="7.46745304"><ele></ele><time>2014-4-27T11:28:33Z</time></trkpt>
<trkpt lat="46.15485133" lon="7.46744240"><ele></ele><time>2014-4-27T11:28:36Z</time></trkpt>
<trkpt lat="46.15489064" lon="7.46741147"><ele></ele><time>2014-4-27T11:28:39Z</time></trkpt>
<trkpt lat="46.15494948" lon="7.46739009"><ele></ele><time>2014-4-27T11:28:42Z</time></trkpt>
<trkpt lat="46.15500907" lon="7.46736176"><ele></ele><time>2014-4-27T11:28:45Z</time></trkpt>
<trkpt lat="46.15506347" lon="7.46734022"><ele></ele><time>2014-4-27T11:28:48Z</time></trkpt>
<trkpt lat="46.15512080" lon="7.46732136"><ele></ele><time>2014-4-27T11:28:51Z</time></trkpt>
<trkpt lat="46.15518878" lon="7.46728021"><ele></ele><time>2014-4-27T11:28:54Z</time></trkpt>
<trkpt lat="46.15524377" lon="7.46718834"><ele></ele><time>2014-4-27T11:28:57Z</time></trkpt>
<trkpt lat="46.15529490" lon="7.46713176"><ele></ele><time>2014-4-27T11:29:0Z</time></trkpt>
<trkpt lat="46.15534435" lon="7.46706680"><ele></ele><time>2014-4-27T11:29:3Z</time></trkpt>
<trkpt lat="46.15538366" lon="7.46697762"><ele></ele><time>2014-4-27T11:29:6Z</time></trkpt>
<trkpt lat="46.15541392" lon="7.46690637"><ele></ele><time>2014-4-27T11:29:9Z</time></trkpt>
<trkpt lat="46.15546664" lon="7.46685348"><ele></ele><time>2014-4-27T11:29:12Z</time></trkpt>
<trkpt lat="46.15552180" lon="7.46683178"><ele></ele><time>2014-4-27T11:29:15Z</time></trkpt>
<trkpt lat="46.15557175" lon="7.46679397"><ele></ele><time>2014-4-27T11:29:18Z</time></trkpt>
<trkpt lat="46.15565356" lon="7.46678836"><ele></ele><time>2014-4-27T11:29:21Z</time></trkpt>
<trkpt lat="46.15568130" lon="7.46672155"><ele></ele><time>2014-4-27T11:29:24Z</time></trkpt>
<trkpt lat="46.15573889" lon="7.46669465"><ele></ele><time>2014-4-27T11:29:27Z</time></trkpt>
<trkpt lat="46.15578474" lon="7.46667931"><ele></ele><time>2014-4-27T11:29:30Z</time></trkpt>
<trkpt lat="46.15582681" lon="7.46667327"><ele></ele><time>2014-4-27T11:29:33Z</time></trkpt>
<trkpt lat="46.15588247" lon="7.46662499"><ele></ele><time>2014-4-27T11:29:36Z</time></trkpt>
<trkpt lat="46.15594994" lon="7.46661544"><ele></ele><time>2014-4-27T11:29:39Z</time></trkpt>
<trkpt lat="46.15604466" lon="7.46660504"><ele></ele><time>2014-4-27T11:29:42Z</time></trkpt>
<trkpt lat="46.15608992" lon="7.46659926"><ele></ele><time>2014-4-27T11:29:45Z</time></trkpt>
<trkpt lat="46.15613627" lon="7.46657068"><ele></ele><time>2014-4-27T11:29:48Z</time></trkpt>
<trkpt lat="46.15617567" lon="7.46651502"><ele></ele><time>2014-4-27T11:29:51Z</time></trkpt>
<trkpt lat="46.15624038" lon="7.46647982"><ele></ele><time>2014-4-27T11:29:54Z</time></trkpt>
<trkpt lat="46.15630542" lon="7.46645375"><ele></ele><time>2014-4-27T11:29:57Z</time></trkpt>
<trkpt lat="46.15638102" lon="7.46646096"><ele></ele><time>2014-4-27T11:30:0Z</time></trkpt>
<trkpt lat="46.15643006" lon="7.46646347"><ele></ele><time>2014-4-27T11:30:3Z</time></trkpt>
<trkpt lat="46.15647423" lon="7.46641880"><ele></ele><time>2014-4-27T11:30:6Z</time></trkpt>
<trkpt lat="46.15652050" lon="7.46639818"><ele></ele><time>2014-4-27T11:30:9Z</time></trkpt>
<trkpt lat="46.15656652" lon="7.46635183"><ele></ele><time>2014-4-27T11:30:12Z</time></trkpt>
<trkpt lat="46.15660314" lon="7.46631662"><ele></ele><time>2014-4-27T11:30:15Z</time></trkpt>
<trkpt lat="46.15664355" lon="7.46626223"><ele></ele><time>2014-4-27T11:30:18Z</time></trkpt>
<trkpt lat="46.15668621" lon="7.46619115"><ele></ele><time>2014-4-27T11:30:21Z</time></trkpt>
<trkpt lat="46.15671722" lon="7.46613356"><ele></ele><time>2014-4-27T11:30:24Z</time></trkpt>
<trkpt lat="46.15675477" lon="7.46608369"><ele></ele><time>2014-4-27T11:30:27Z</time></trkpt>
<trkpt lat="46.15678864" lon="7.46604119"><ele></ele><time>2014-4-27T11:30:30Z</time></trkpt>
<trkpt lat="46.15685418" lon="7.46600004"><ele></ele><time>2014-4-27T11:30:33Z</time></trkpt>
<trkpt lat="46.15689542" lon="7.46599266"><ele></ele><time>2014-4-27T11:30:36Z</time></trkpt>
<trkpt lat="46.15693775" lon="7.46599635"><ele></ele><time>2014-4-27T11:30:39Z</time></trkpt>
<trkpt lat="46.15699139" lon="7.46600322"><ele></ele><time>2014-4-27T11:30:42Z</time></trkpt>
<trkpt lat="46.15702718" lon="7.46600297"><ele></ele><time>2014-4-27T11:30:45Z</time></trkpt>
<trkpt lat="46.15706557" lon="7.46600138"><ele></ele><time>2014-4-27T11:30:48Z</time></trkpt>
<trkpt lat="46.15711285" lon="7.46600591"><ele></ele><time>2014-4-27T11:30:51Z</time></trkpt>
<trkpt lat="46.15713716" lon="7.46602518"><ele></ele><time>2014-4-27T11:30:54Z</time></trkpt>
<trkpt lat="46.15716976" lon="7.46607564"><ele></ele><time>2014-4-27T11:30:57Z</time></trkpt>
<trkpt lat="46.15716607" lon="7.46614060"><ele></ele><time>2014-4-27T11:31:0Z</time></trkpt>
<trkpt lat="46.15719005" lon="7.46619919"><ele></ele><time>2014-4-27T11:31:3Z</time></trkpt>
<trkpt lat="46.15722441" lon="7.46624940"><ele></ele><time>2014-4-27T11:31:6Z</time></trkpt>
<trkpt lat="46.15723522" lon="7.46631520"><ele></ele><time>2014-4-27T11:31:9Z</time></trkpt>
<trkpt lat="46.15726012" lon="7.46637186"><ele></ele><time>2014-4-27T11:31:12Z</time></trkpt>
<trkpt lat="46.15727060" lon="7.46642458"><ele></ele><time>2014-4-27T11:31:15Z</time></trkpt>
<trkpt lat="46.15729708" lon="7.46647714"><ele></ele><time>2014-4-27T11:31:18Z</time></trkpt>
<trkpt lat="46.15731653" lon="7.46652349"><ele></ele><time>2014-4-27T11:31:21Z</time></trkpt>
<trkpt lat="46.15736883" lon="7.46655609"><ele></ele><time>2014-4-27T11:31:24Z</time></trkpt>
<trkpt lat="46.15741988" lon="7.46657462"><ele></ele><time>2014-4-27T11:31:27Z</time></trkpt>
<trkpt lat="46.15747478" lon="7.46654637"><ele></ele><time>2014-4-27T11:31:30Z</time></trkpt>
<trkpt lat="46.15752708" lon="7.46655291"><ele></ele><time>2014-4-27T11:31:33Z</time></trkpt>
<trkpt lat="46.15753496" lon="7.46660630"><ele></ele><time>2014-4-27T11:31:36Z</time></trkpt>
<trkpt lat="46.15752574" lon="7.46662877"><ele></ele><time>2014-4-27T11:31:39Z</time></trkpt>
<trkpt lat="46.15748459" lon="7.46669901"><ele></ele><time>2014-4-27T11:31:42Z</time></trkpt>
<trkpt lat="46.15751132" lon="7.46671150"><ele></ele><time>2014-4-27T11:31:45Z</time></trkpt>
<trkpt lat="46.15754778" lon="7.46666724"><ele></ele><time>2014-4-27T11:31:48Z</time></trkpt>
<trkpt lat="46.15759196" lon="7.46660530"><ele></ele><time>2014-4-27T11:31:51Z</time></trkpt>
<trkpt lat="46.15762280" lon="7.46654671"><ele></ele><time>2014-4-27T11:31:54Z</time></trkpt>
<trkpt lat="46.15766513" lon="7.46651636"><ele></ele><time>2014-4-27T11:31:57Z</time></trkpt>
<trkpt lat="46.15772431" lon="7.46656825"><ele></ele><time>2014-4-27T11:32:0Z</time></trkpt>
<trkpt lat="46.15780486" lon="7.46661142"><ele></ele><time>2014-4-27T11:32:3Z</time></trkpt>
<trkpt lat="46.15784761" lon="7.46661242"><ele></ele><time>2014-4-27T11:32:6Z</time></trkpt>
<trkpt lat="46.15786110" lon="7.46661058"><ele></ele><time>2014-4-27T11:32:9Z</time></trkpt>
<trkpt lat="46.15787284" lon="7.46656448"><ele></ele><time>2014-4-27T11:32:12Z</time></trkpt>
<trkpt lat="46.15787619" lon="7.46654545"><ele></ele><time>2014-4-27T11:32:15Z</time></trkpt>
<trkpt lat="46.15793277" lon="7.46659515"><ele></ele><time>2014-4-27T11:32:18Z</time></trkpt>
<trkpt lat="46.15796856" lon="7.46663539"><ele></ele><time>2014-4-27T11:32:21Z</time></trkpt>
<trkpt lat="46.15793738" lon="7.46666908"><ele></ele><time>2014-4-27T11:32:24Z</time></trkpt>
<trkpt lat="46.15793419" lon="7.46666774"><ele></ele><time>2014-4-27T11:32:27Z</time></trkpt>
<trkpt lat="46.15789102" lon="7.46666791"><ele></ele><time>2014-4-27T11:32:30Z</time></trkpt>
<trkpt lat="46.15791282" lon="7.46665861"><ele></ele><time>2014-4-27T11:32:33Z</time></trkpt>
<trkpt lat="46.15799110" lon="7.46664863"><ele></ele><time>2014-4-27T11:32:36Z</time></trkpt>
<trkpt lat="46.15806386" lon="7.46658979"><ele></ele><time>2014-4-27T11:32:39Z</time></trkpt>
<trkpt lat="46.15810853" lon="7.46662851"><ele></ele><time>2014-4-27T11:32:42Z</time></trkpt>
<trkpt lat="46.15813217" lon="7.46664695"><ele></ele><time>2014-4-27T11:32:45Z</time></trkpt>
<trkpt lat="46.15813821" lon="7.46663882"><ele></ele><time>2014-4-27T11:32:48Z</time></trkpt>
<trkpt lat="46.15815765" lon="7.46666724"><ele></ele><time>2014-4-27T11:32:51Z</time></trkpt>
<trkpt lat="46.15818716" lon="7.46663807"><ele></ele><time>2014-4-27T11:32:54Z</time></trkpt>
<trkpt lat="46.15823024" lon="7.46663329"><ele></ele><time>2014-4-27T11:32:57Z</time></trkpt>
<trkpt lat="46.15828514" lon="7.46666229"><ele></ele><time>2014-4-27T11:33:0Z</time></trkpt>
<trkpt lat="46.15833024" lon="7.46667168"><ele></ele><time>2014-4-27T11:33:3Z</time></trkpt>
<trkpt lat="46.15838313" lon="7.46670429"><ele></ele><time>2014-4-27T11:33:6Z</time></trkpt>
<trkpt lat="46.15842646" lon="7.46674452"><ele></ele><time>2014-4-27T11:33:9Z</time></trkpt>
<trkpt lat="46.15848631" lon="7.46682021"><ele></ele><time>2014-4-27T11:33:12Z</time></trkpt>
<trkpt lat="46.15855470" lon="7.46685516"><ele></ele><time>2014-4-27T11:33:15Z</time></trkpt>
<trkpt lat="46.15859703" lon="7.46690931"><ele></ele><time>2014-4-27T11:33:18Z</time></trkpt>
<trkpt lat="46.15855537" lon="7.46704308"><ele></ele><time>2014-4-27T11:33:21Z</time></trkpt>
<trkpt lat="46.15846300" lon="7.46715507"><ele></ele><time>2014-4-27T11:33:24Z</time></trkpt>
<trkpt lat="46.15839193" lon="7.46725833"><ele></ele><time>2014-4-27T11:33:27Z</time></trkpt>
<trkpt lat="46.15830777" lon="7.46732161"><ele></ele><time>2014-4-27T11:33:30Z</time></trkpt>
<trkpt lat="46.15828699" lon="7.46736922"><ele></ele><time>2014-4-27T11:33:33Z</time></trkpt>
<trkpt lat="46.15829914" lon="7.46741524"><ele></ele><time>2014-4-27T11:33:36Z</time></trkpt>
<trkpt lat="46.15833350" lon="7.46746486"><ele></ele><time>2014-4-27T11:33:39Z</time></trkpt>
<trkpt lat="46.15832755" lon="7.46753359"><ele></ele><time>2014-4-27T11:33:42Z</time></trkpt>
<trkpt lat="46.15830534" lon="7.46760224"><ele></ele><time>2014-4-27T11:33:45Z</time></trkpt>
<trkpt lat="46.15829671" lon="7.46765655"><ele></ele><time>2014-4-27T11:33:48Z</time></trkpt>
<trkpt lat="46.15828380" lon="7.46773727"><ele></ele><time>2014-4-27T11:33:51Z</time></trkpt>
<trkpt lat="46.15829637" lon="7.46779921"><ele></ele><time>2014-4-27T11:33:54Z</time></trkpt>
<trkpt lat="46.15831934" lon="7.46786174"><ele></ele><time>2014-4-27T11:33:57Z</time></trkpt>
<trkpt lat="46.15833770" lon="7.46792670"><ele></ele><time>2014-4-27T11:34:0Z</time></trkpt>
<trkpt lat="46.15835018" lon="7.46799552"><ele></ele><time>2014-4-27T11:34:3Z</time></trkpt>
<trkpt lat="46.15838438" lon="7.46807900"><ele></ele><time>2014-4-27T11:34:6Z</time></trkpt>
<trkpt lat="46.15843819" lon="7.46813692"><ele></ele><time>2014-4-27T11:34:9Z</time></trkpt>
<trkpt lat="46.15847139" lon="7.46820381"><ele></ele><time>2014-4-27T11:34:12Z</time></trkpt>
<trkpt lat="46.15849117" lon="7.46827355"><ele></ele><time>2014-4-27T11:34:15Z</time></trkpt>
<trkpt lat="46.15853174" lon="7.46834714"><ele></ele><time>2014-4-27T11:34:18Z</time></trkpt>
<trkpt lat="46.15856485" lon="7.46841185"><ele></ele><time>2014-4-27T11:34:21Z</time></trkpt>
<trkpt lat="46.15859695" lon="7.46845074"><ele></ele><time>2014-4-27T11:34:24Z</time></trkpt>
<trkpt lat="46.15865109" lon="7.46852458"><ele></ele><time>2014-4-27T11:34:27Z</time></trkpt>
<trkpt lat="46.15867230" lon="7.46859005"><ele></ele><time>2014-4-27T11:34:30Z</time></trkpt>
<trkpt lat="46.15870407" lon="7.46866641"><ele></ele><time>2014-4-27T11:34:33Z</time></trkpt>
<trkpt lat="46.15873785" lon="7.46869834"><ele></ele><time>2014-4-27T11:34:36Z</time></trkpt>
<trkpt lat="46.15876232" lon="7.46877294"><ele></ele><time>2014-4-27T11:34:39Z</time></trkpt>
<trkpt lat="46.15882175" lon="7.46888635"><ele></ele><time>2014-4-27T11:34:42Z</time></trkpt>
<trkpt lat="46.15883256" lon="7.46898492"><ele></ele><time>2014-4-27T11:34:45Z</time></trkpt>
<trkpt lat="46.15880247" lon="7.46904560"><ele></ele><time>2014-4-27T11:34:48Z</time></trkpt>
<trkpt lat="46.15881932" lon="7.46912657"><ele></ele><time>2014-4-27T11:34:51Z</time></trkpt>
<trkpt lat="46.15885000" lon="7.46934157"><ele></ele><time>2014-4-27T11:34:54Z</time></trkpt>
<trkpt lat="46.15885528" lon="7.46947710"><ele></ele><time>2014-4-27T11:34:57Z</time></trkpt>
<trkpt lat="46.15886534" lon="7.46960862"><ele></ele><time>2014-4-27T11:35:0Z</time></trkpt>
<trkpt lat="46.15890867" lon="7.46976385"><ele></ele><time>2014-4-27T11:35:3Z</time></trkpt>
<trkpt lat="46.15894253" lon="7.46985437"><ele></ele><time>2014-4-27T11:35:6Z</time></trkpt>
<trkpt lat="46.15894287" lon="7.47001078"><ele></ele><time>2014-4-27T11:35:9Z</time></trkpt>
<trkpt lat="46.15889082" lon="7.47020516"><ele></ele><time>2014-4-27T11:35:12Z</time></trkpt>
<trkpt lat="46.15882670" lon="7.47038193"><ele></ele><time>2014-4-27T11:35:15Z</time></trkpt>
<trkpt lat="46.15884455" lon="7.47040624"><ele></ele><time>2014-4-27T11:35:18Z</time></trkpt>
<trkpt lat="46.15883952" lon="7.47049006"><ele></ele><time>2014-4-27T11:35:21Z</time></trkpt>
<trkpt lat="46.15882577" lon="7.47055963"><ele></ele><time>2014-4-27T11:35:24Z</time></trkpt>
<trkpt lat="46.15879225" lon="7.47064244"><ele></ele><time>2014-4-27T11:35:27Z</time></trkpt>
<trkpt lat="46.15871656" lon="7.47066080"><ele></ele><time>2014-4-27T11:35:30Z</time></trkpt>
<trkpt lat="46.15855847" lon="7.47070497"><ele></ele><time>2014-4-27T11:35:33Z</time></trkpt>
<trkpt lat="46.15849821" lon="7.47079373"><ele></ele><time>2014-4-27T11:35:36Z</time></trkpt>
<trkpt lat="46.15842084" lon="7.47083967"><ele></ele><time>2014-4-27T11:35:39Z</time></trkpt>
<trkpt lat="46.15838807" lon="7.47086003"><ele></ele><time>2014-4-27T11:35:42Z</time></trkpt>
<trkpt lat="46.15830383" lon="7.47089281"><ele></ele><time>2014-4-27T11:35:45Z</time></trkpt>
<trkpt lat="46.15821943" lon="7.47090655"><ele></ele><time>2014-4-27T11:35:48Z</time></trkpt>
<trkpt lat="46.15812656" lon="7.47096221"><ele></ele><time>2014-4-27T11:35:51Z</time></trkpt>
<trkpt lat="46.15804953" lon="7.47103966"><ele></ele><time>2014-4-27T11:35:54Z</time></trkpt>
<trkpt lat="46.15799219" lon="7.47109959"><ele></ele><time>2014-4-27T11:35:57Z</time></trkpt>
<trkpt lat="46.15791072" lon="7.47111635"><ele></ele><time>2014-4-27T11:36:0Z</time></trkpt>
<trkpt lat="46.15783855" lon="7.47116388"><ele></ele><time>2014-4-27T11:36:3Z</time></trkpt>
<trkpt lat="46.15782900" lon="7.47121668"><ele></ele><time>2014-4-27T11:36:6Z</time></trkpt>
<trkpt lat="46.15781391" lon="7.47127485"><ele></ele><time>2014-4-27T11:36:9Z</time></trkpt>
<trkpt lat="46.15780352" lon="7.47130486"><ele></ele><time>2014-4-27T11:36:12Z</time></trkpt>
<trkpt lat="46.15775792" lon="7.47133881"><ele></ele><time>2014-4-27T11:36:15Z</time></trkpt>
<trkpt lat="46.15771936" lon="7.47138139"><ele></ele><time>2014-4-27T11:36:18Z</time></trkpt>
<trkpt lat="46.15769413" lon="7.47145079"><ele></ele><time>2014-4-27T11:36:21Z</time></trkpt>
<trkpt lat="46.15768173" lon="7.47148910"><ele></ele><time>2014-4-27T11:36:24Z</time></trkpt>
<trkpt lat="46.15766044" lon="7.47155548"><ele></ele><time>2014-4-27T11:36:27Z</time></trkpt>
<trkpt lat="46.15760746" lon="7.47161114"><ele></ele><time>2014-4-27T11:36:30Z</time></trkpt>
<trkpt lat="46.15737143" lon="7.47175355"><ele></ele><time>2014-4-27T11:36:33Z</time></trkpt>
<trkpt lat="46.15734913" lon="7.47180970"><ele></ele><time>2014-4-27T11:36:36Z</time></trkpt>
<trkpt lat="46.15730764" lon="7.47191188"><ele></ele><time>2014-4-27T11:36:39Z</time></trkpt>
<trkpt lat="46.15729867" lon="7.47199260"><ele></ele><time>2014-4-27T11:36:42Z</time></trkpt>
<trkpt lat="46.15726766" lon="7.47204850"><ele></ele><time>2014-4-27T11:36:45Z</time></trkpt>
<trkpt lat="46.15727169" lon="7.47210198"><ele></ele><time>2014-4-27T11:36:48Z</time></trkpt>
<trkpt lat="46.15726984" lon="7.47216719"><ele></ele><time>2014-4-27T11:36:51Z</time></trkpt>
<trkpt lat="46.15727336" lon="7.47217918"><ele></ele><time>2014-4-27T11:36:54Z</time></trkpt>
<trkpt lat="46.15726884" lon="7.47216568"><ele></ele><time>2014-4-27T11:36:57Z</time></trkpt>
<trkpt lat="46.15726942" lon="7.47217046"><ele></ele><time>2014-4-27T11:37:0Z</time></trkpt>
<trkpt lat="46.15727336" lon="7.47217147"><ele></ele><time>2014-4-27T11:37:3Z</time></trkpt>
<trkpt lat="46.15727671" lon="7.47217222"><ele></ele><time>2014-4-27T11:37:6Z</time></trkpt>
<trkpt lat="46.15728023" lon="7.47217415"><ele></ele><time>2014-4-27T11:37:9Z</time></trkpt>
<trkpt lat="46.15728560" lon="7.47217742"><ele></ele><time>2014-4-27T11:37:12Z</time></trkpt>
<trkpt lat="46.15730605" lon="7.47216610"><ele></ele><time>2014-4-27T11:37:15Z</time></trkpt>
<trkpt lat="46.15730639" lon="7.47216166"><ele></ele><time>2014-4-27T11:37:18Z</time></trkpt>
<trkpt lat="46.15728116" lon="7.47215998"><ele></ele><time>2014-4-27T11:37:21Z</time></trkpt>
<trkpt lat="46.15727814" lon="7.47220667"><ele></ele><time>2014-4-27T11:37:24Z</time></trkpt>
<trkpt lat="46.15728568" lon="7.47229099"><ele></ele><time>2014-4-27T11:37:27Z</time></trkpt>
<trkpt lat="46.15726221" lon="7.47235671"><ele></ele><time>2014-4-27T11:37:30Z</time></trkpt>
<trkpt lat="46.15725635" lon="7.47245193"><ele></ele><time>2014-4-27T11:37:33Z</time></trkpt>
<trkpt lat="46.15724511" lon="7.47257648"><ele></ele><time>2014-4-27T11:37:36Z</time></trkpt>
<trkpt lat="46.15723581" lon="7.47268888"><ele></ele><time>2014-4-27T11:37:39Z</time></trkpt>
<trkpt lat="46.15728996" lon="7.47282467"><ele></ele><time>2014-4-27T11:37:42Z</time></trkpt>
<trkpt lat="46.15729532" lon="7.47289164"><ele></ele><time>2014-4-27T11:37:45Z</time></trkpt>
<trkpt lat="46.15732055" lon="7.47296984"><ele></ele><time>2014-4-27T11:37:48Z</time></trkpt>
<trkpt lat="46.15733799" lon="7.47304218"><ele></ele><time>2014-4-27T11:37:51Z</time></trkpt>
<trkpt lat="46.15733103" lon="7.47308970"><ele></ele><time>2014-4-27T11:37:54Z</time></trkpt>
<trkpt lat="46.15732290" lon="7.47319959"><ele></ele><time>2014-4-27T11:37:57Z</time></trkpt>
<trkpt lat="46.15734980" lon="7.47333387"><ele></ele><time>2014-4-27T11:38:0Z</time></trkpt>
<trkpt lat="46.15735458" lon="7.47340704"><ele></ele><time>2014-4-27T11:38:3Z</time></trkpt>
<trkpt lat="46.15733648" lon="7.47359907"><ele></ele><time>2014-4-27T11:38:6Z</time></trkpt>
<trkpt lat="46.15734234" lon="7.47370569"><ele></ele><time>2014-4-27T11:38:9Z</time></trkpt>
<trkpt lat="46.15732131" lon="7.47382907"><ele></ele><time>2014-4-27T11:38:12Z</time></trkpt>
<trkpt lat="46.15728803" lon="7.47390853"><ele></ele><time>2014-4-27T11:38:15Z</time></trkpt>
<trkpt lat="46.15724453" lon="7.47406787"><ele></ele><time>2014-4-27T11:38:18Z</time></trkpt>
<trkpt lat="46.15717848" lon="7.47414934"><ele></ele><time>2014-4-27T11:38:21Z</time></trkpt>
<trkpt lat="46.15715132" lon="7.47422931"><ele></ele><time>2014-4-27T11:38:24Z</time></trkpt>
<trkpt lat="46.15712492" lon="7.47429946"><ele></ele><time>2014-4-27T11:38:27Z</time></trkpt>
<trkpt lat="46.15706893" lon="7.47437708"><ele></ele><time>2014-4-27T11:38:30Z</time></trkpt>
<trkpt lat="46.15700321" lon="7.47442880"><ele></ele><time>2014-4-27T11:38:33Z</time></trkpt>
<trkpt lat="46.15697170" lon="7.47448965"><ele></ele><time>2014-4-27T11:38:36Z</time></trkpt>
<trkpt lat="46.15691747" lon="7.47455520"><ele></ele><time>2014-4-27T11:38:39Z</time></trkpt>
<trkpt lat="46.15685862" lon="7.47462611"><ele></ele><time>2014-4-27T11:38:42Z</time></trkpt>
<trkpt lat="46.15679467" lon="7.47469082"><ele></ele><time>2014-4-27T11:38:45Z</time></trkpt>
<trkpt lat="46.15671647" lon="7.47472652"><ele></ele><time>2014-4-27T11:38:48Z</time></trkpt>
<trkpt lat="46.15668604" lon="7.47477983"><ele></ele><time>2014-4-27T11:38:51Z</time></trkpt>
<trkpt lat="46.15667104" lon="7.47482023"><ele></ele><time>2014-4-27T11:38:54Z</time></trkpt>
<trkpt lat="46.15674614" lon="7.47491620"><ele></ele><time>2014-4-27T11:38:57Z</time></trkpt>
<trkpt lat="46.15674706" lon="7.47498603"><ele></ele><time>2014-4-27T11:39:0Z</time></trkpt>
<trkpt lat="46.15670658" lon="7.47513078"><ele></ele><time>2014-4-27T11:39:3Z</time></trkpt>
<trkpt lat="46.15667682" lon="7.47529800"><ele></ele><time>2014-4-27T11:39:6Z</time></trkpt>
<trkpt lat="46.15665402" lon="7.47547033"><ele></ele><time>2014-4-27T11:39:9Z</time></trkpt>
<trkpt lat="46.15662301" lon="7.47555960"><ele></ele><time>2014-4-27T11:39:12Z</time></trkpt>
<trkpt lat="46.15656911" lon="7.47569522"><ele></ele><time>2014-4-27T11:39:15Z</time></trkpt>
<trkpt lat="46.15656886" lon="7.47582489"><ele></ele><time>2014-4-27T11:39:18Z</time></trkpt>
<trkpt lat="46.15653408" lon="7.47610392"><ele></ele><time>2014-4-27T11:39:21Z</time></trkpt>
<trkpt lat="46.15649343" lon="7.47626745"><ele></ele><time>2014-4-27T11:39:24Z</time></trkpt>
<trkpt lat="46.15646300" lon="7.47631414"><ele></ele><time>2014-4-27T11:39:27Z</time></trkpt>
<trkpt lat="46.15642377" lon="7.47639645"><ele></ele><time>2014-4-27T11:39:30Z</time></trkpt>
<trkpt lat="46.15637683" lon="7.47646317"><ele></ele><time>2014-4-27T11:39:33Z</time></trkpt>
<trkpt lat="46.15634381" lon="7.47652763"><ele></ele><time>2014-4-27T11:39:36Z</time></trkpt>
<trkpt lat="46.15629905" lon="7.47666291"><ele></ele><time>2014-4-27T11:39:39Z</time></trkpt>
<trkpt lat="46.15625873" lon="7.47675494"><ele></ele><time>2014-4-27T11:39:42Z</time></trkpt>
<trkpt lat="46.15617483" lon="7.47683147"><ele></ele><time>2014-4-27T11:39:45Z</time></trkpt>
<trkpt lat="46.15611331" lon="7.47690431"><ele></ele><time>2014-4-27T11:39:48Z</time></trkpt>
<trkpt lat="46.15603762" lon="7.47700120"><ele></ele><time>2014-4-27T11:39:51Z</time></trkpt>
<trkpt lat="46.15596218" lon="7.47719927"><ele></ele><time>2014-4-27T11:39:54Z</time></trkpt>
<trkpt lat="46.15589378" lon="7.47749791"><ele></ele><time>2014-4-27T11:39:57Z</time></trkpt>
<trkpt lat="46.15587425" lon="7.47763043"><ele></ele><time>2014-4-27T11:40:0Z</time></trkpt>
<trkpt lat="46.15584274" lon="7.47781366"><ele></ele><time>2014-4-27T11:40:3Z</time></trkpt>
<trkpt lat="46.15584182" lon="7.47789639"><ele></ele><time>2014-4-27T11:40:6Z</time></trkpt>
<trkpt lat="46.15585263" lon="7.47794911"><ele></ele><time>2014-4-27T11:40:9Z</time></trkpt>
<trkpt lat="46.15585481" lon="7.47801550"><ele></ele><time>2014-4-27T11:40:12Z</time></trkpt>
<trkpt lat="46.15583704" lon="7.47820107"><ele></ele><time>2014-4-27T11:40:15Z</time></trkpt>
<trkpt lat="46.15584215" lon="7.47829042"><ele></ele><time>2014-4-27T11:40:18Z</time></trkpt>
<trkpt lat="46.15581189" lon="7.47842152"><ele></ele><time>2014-4-27T11:40:21Z</time></trkpt>
<trkpt lat="46.15577250" lon="7.47842671"><ele></ele><time>2014-4-27T11:40:24Z</time></trkpt>
<trkpt lat="46.15572958" lon="7.47841037"><ele></ele><time>2014-4-27T11:40:27Z</time></trkpt>
<trkpt lat="46.15565901" lon="7.47837600"><ele></ele><time>2014-4-27T11:40:30Z</time></trkpt>
<trkpt lat="46.15558684" lon="7.47838346"><ele></ele><time>2014-4-27T11:40:33Z</time></trkpt>
<trkpt lat="46.15556949" lon="7.47844691"><ele></ele><time>2014-4-27T11:40:36Z</time></trkpt>
<trkpt lat="46.15554853" lon="7.47855177"><ele></ele><time>2014-4-27T11:40:39Z</time></trkpt>
<trkpt lat="46.15551710" lon="7.47861095"><ele></ele><time>2014-4-27T11:40:42Z</time></trkpt>
<trkpt lat="46.15545323" lon="7.47868664"><ele></ele><time>2014-4-27T11:40:45Z</time></trkpt>
<trkpt lat="46.15540897" lon="7.47872159"><ele></ele><time>2014-4-27T11:40:48Z</time></trkpt>
<trkpt lat="46.15539582" lon="7.47877507"><ele></ele><time>2014-4-27T11:40:51Z</time></trkpt>
<trkpt lat="46.15543420" lon="7.47880080"><ele></ele><time>2014-4-27T11:40:54Z</time></trkpt>
<trkpt lat="46.15546740" lon="7.47881622"><ele></ele><time>2014-4-27T11:40:57Z</time></trkpt>
<trkpt lat="46.15550403" lon="7.47883558"><ele></ele><time>2014-4-27T11:41:0Z</time></trkpt>
<trkpt lat="46.15553034" lon="7.47886970"><ele></ele><time>2014-4-27T11:41:3Z</time></trkpt>
<trkpt lat="46.15554744" lon="7.47890431"><ele></ele><time>2014-4-27T11:41:6Z</time></trkpt>
<trkpt lat="46.15557980" lon="7.47893776"><ele></ele><time>2014-4-27T11:41:9Z</time></trkpt>
<trkpt lat="46.15563076" lon="7.47897975"><ele></ele><time>2014-4-27T11:41:12Z</time></trkpt>
<trkpt lat="46.15568164" lon="7.47902812"><ele></ele><time>2014-4-27T11:41:15Z</time></trkpt>
<trkpt lat="46.15573143" lon="7.47905402"><ele></ele><time>2014-4-27T11:41:18Z</time></trkpt>
<trkpt lat="46.15576445" lon="7.47908402"><ele></ele><time>2014-4-27T11:41:21Z</time></trkpt>
<trkpt lat="46.15578658" lon="7.47913431"><ele></ele><time>2014-4-27T11:41:24Z</time></trkpt>
<trkpt lat="46.15581240" lon="7.47918410"><ele></ele><time>2014-4-27T11:41:27Z</time></trkpt>
<trkpt lat="46.15582430" lon="7.47922895"><ele></ele><time>2014-4-27T11:41:30Z</time></trkpt>
<trkpt lat="46.15582312" lon="7.47928980"><ele></ele><time>2014-4-27T11:41:33Z</time></trkpt>
<trkpt lat="46.15579781" lon="7.47933556"><ele></ele><time>2014-4-27T11:41:36Z</time></trkpt>
<trkpt lat="46.15575305" lon="7.47938351"><ele></ele><time>2014-4-27T11:41:39Z</time></trkpt>
<trkpt lat="46.15570142" lon="7.47942022"><ele></ele><time>2014-4-27T11:41:42Z</time></trkpt>
<trkpt lat="46.15563327" lon="7.47948644"><ele></ele><time>2014-4-27T11:41:45Z</time></trkpt>
<trkpt lat="46.15558214" lon="7.47952784"><ele></ele><time>2014-4-27T11:41:48Z</time></trkpt>
<trkpt lat="46.15552766" lon="7.47955592"><ele></ele><time>2014-4-27T11:41:51Z</time></trkpt>
<trkpt lat="46.15550939" lon="7.47962474"><ele></ele><time>2014-4-27T11:41:54Z</time></trkpt>
<trkpt lat="46.15551895" lon="7.47968056"><ele></ele><time>2014-4-27T11:41:57Z</time></trkpt>
<trkpt lat="46.15551232" lon="7.47967386"><ele></ele><time>2014-4-27T11:42:0Z</time></trkpt>
<trkpt lat="46.15549874" lon="7.47969280"><ele></ele><time>2014-4-27T11:42:3Z</time></trkpt>
<trkpt lat="46.15546111" lon="7.47971510"><ele></ele><time>2014-4-27T11:42:6Z</time></trkpt>
<trkpt lat="46.15546547" lon="7.47968844"><ele></ele><time>2014-4-27T11:42:9Z</time></trkpt>
<trkpt lat="46.15548106" lon="7.47966648"><ele></ele><time>2014-4-27T11:42:12Z</time></trkpt>
<trkpt lat="46.15548274" lon="7.47968266"><ele></ele><time>2014-4-27T11:42:15Z</time></trkpt>
<trkpt lat="46.15550579" lon="7.47973236"><ele></ele><time>2014-4-27T11:42:18Z</time></trkpt>
<trkpt lat="46.15550092" lon="7.47974829"><ele></ele><time>2014-4-27T11:42:21Z</time></trkpt>
<trkpt lat="46.15549682" lon="7.47974494"><ele></ele><time>2014-4-27T11:42:24Z</time></trkpt>
<trkpt lat="46.15547142" lon="7.47973027"><ele></ele><time>2014-4-27T11:42:27Z</time></trkpt>
<trkpt lat="46.15547544" lon="7.47972582"><ele></ele><time>2014-4-27T11:42:30Z</time></trkpt>
<trkpt lat="46.15549321" lon="7.47972021"><ele></ele><time>2014-4-27T11:42:33Z</time></trkpt>
<trkpt lat="46.15549145" lon="7.47972465"><ele></ele><time>2014-4-27T11:42:36Z</time></trkpt>
<trkpt lat="46.15548198" lon="7.47975105"><ele></ele><time>2014-4-27T11:42:39Z</time></trkpt>
<trkpt lat="46.15547905" lon="7.47976396"><ele></ele><time>2014-4-27T11:42:42Z</time></trkpt>
<trkpt lat="46.15548374" lon="7.47980906"><ele></ele><time>2014-4-27T11:42:45Z</time></trkpt>
<trkpt lat="46.15550964" lon="7.47991023"><ele></ele><time>2014-4-27T11:42:48Z</time></trkpt>
<trkpt lat="46.15554350" lon="7.48000335"><ele></ele><time>2014-4-27T11:42:51Z</time></trkpt>
<trkpt lat="46.15554652" lon="7.48009161"><ele></ele><time>2014-4-27T11:42:54Z</time></trkpt>
<trkpt lat="46.15554040" lon="7.48016822"><ele></ele><time>2014-4-27T11:42:57Z</time></trkpt>
<trkpt lat="46.15552171" lon="7.48024894"><ele></ele><time>2014-4-27T11:43:0Z</time></trkpt>
<trkpt lat="46.15550084" lon="7.48032806"><ele></ele><time>2014-4-27T11:43:3Z</time></trkpt>
<trkpt lat="46.15547611" lon="7.48041289"><ele></ele><time>2014-4-27T11:43:6Z</time></trkpt>
<trkpt lat="46.15547368" lon="7.48051071"><ele></ele><time>2014-4-27T11:43:9Z</time></trkpt>
<trkpt lat="46.15546455" lon="7.48061313"><ele></ele><time>2014-4-27T11:43:12Z</time></trkpt>
<trkpt lat="46.15544560" lon="7.48069737"><ele></ele><time>2014-4-27T11:43:15Z</time></trkpt>
<trkpt lat="46.15541853" lon="7.48078245"><ele></ele><time>2014-4-27T11:43:18Z</time></trkpt>
<trkpt lat="46.15540227" lon="7.48086241"><ele></ele><time>2014-4-27T11:43:21Z</time></trkpt>
<trkpt lat="46.15538098" lon="7.48093651"><ele></ele><time>2014-4-27T11:43:24Z</time></trkpt>
<trkpt lat="46.15535340" lon="7.48100373"><ele></ele><time>2014-4-27T11:43:27Z</time></trkpt>
<trkpt lat="46.15532096" lon="7.48106961"><ele></ele><time>2014-4-27T11:43:30Z</time></trkpt>
<trkpt lat="46.15527285" lon="7.48114312"><ele></ele><time>2014-4-27T11:43:33Z</time></trkpt>
<trkpt lat="46.15523648" lon="7.48120439"><ele></ele><time>2014-4-27T11:43:36Z</time></trkpt>
<trkpt lat="46.15520437" lon="7.48125703"><ele></ele><time>2014-4-27T11:43:39Z</time></trkpt>
<trkpt lat="46.15515852" lon="7.48131160"><ele></ele><time>2014-4-27T11:43:42Z</time></trkpt>
<trkpt lat="46.15510781" lon="7.48136667"><ele></ele><time>2014-4-27T11:43:45Z</time></trkpt>
<trkpt lat="46.15507638" lon="7.48143079"><ele></ele><time>2014-4-27T11:43:48Z</time></trkpt>
<trkpt lat="46.15505006" lon="7.48149617"><ele></ele><time>2014-4-27T11:43:51Z</time></trkpt>
<trkpt lat="46.15503430" lon="7.48158527"><ele></ele><time>2014-4-27T11:43:54Z</time></trkpt>
<trkpt lat="46.15501192" lon="7.48167168"><ele></ele><time>2014-4-27T11:43:57Z</time></trkpt>
<trkpt lat="46.15499516" lon="7.48173279"><ele></ele><time>2014-4-27T11:44:0Z</time></trkpt>
<trkpt lat="46.15497144" lon="7.48182993"><ele></ele><time>2014-4-27T11:44:3Z</time></trkpt>
<trkpt lat="46.15494244" lon="7.48190252"><ele></ele><time>2014-4-27T11:44:6Z</time></trkpt>
<trkpt lat="46.15489994" lon="7.48197502"><ele></ele><time>2014-4-27T11:44:9Z</time></trkpt>
<trkpt lat="46.15486625" lon="7.48202305"><ele></ele><time>2014-4-27T11:44:12Z</time></trkpt>
<trkpt lat="46.15483205" lon="7.48208198"><ele></ele><time>2014-4-27T11:44:15Z</time></trkpt>
<trkpt lat="46.15480221" lon="7.48215993"><ele></ele><time>2014-4-27T11:44:18Z</time></trkpt>
<trkpt lat="46.15479584" lon="7.48223838"><ele></ele><time>2014-4-27T11:44:21Z</time></trkpt>
<trkpt lat="46.15478368" lon="7.48225213"><ele></ele><time>2014-4-27T11:44:24Z</time></trkpt>
<trkpt lat="46.15478704" lon="7.48225079"><ele></ele><time>2014-4-27T11:44:27Z</time></trkpt>
<trkpt lat="46.15481931" lon="7.48223620"><ele></ele><time>2014-4-27T11:44:30Z</time></trkpt>
<trkpt lat="46.15485979" lon="7.48225238"><ele></ele><time>2014-4-27T11:44:33Z</time></trkpt>
<trkpt lat="46.15488586" lon="7.48227476"><ele></ele><time>2014-4-27T11:44:36Z</time></trkpt>
<trkpt lat="46.15491293" lon="7.48231466"><ele></ele><time>2014-4-27T11:44:39Z</time></trkpt>
<trkpt lat="46.15495308" lon="7.48228163"><ele></ele><time>2014-4-27T11:44:42Z</time></trkpt>
<trkpt lat="46.15500002" lon="7.48229471"><ele></ele><time>2014-4-27T11:44:45Z</time></trkpt>
<trkpt lat="46.15502458" lon="7.48232681"><ele></ele><time>2014-4-27T11:44:48Z</time></trkpt>
<trkpt lat="46.15506926" lon="7.48232237"><ele></ele><time>2014-4-27T11:44:51Z</time></trkpt>
<trkpt lat="46.15509985" lon="7.48233293"><ele></ele><time>2014-4-27T11:44:54Z</time></trkpt>
<trkpt lat="46.15512860" lon="7.48234425"><ele></ele><time>2014-4-27T11:44:57Z</time></trkpt>
<trkpt lat="46.15514612" lon="7.48235255"><ele></ele><time>2014-4-27T11:45:0Z</time></trkpt>
<trkpt lat="46.15519415" lon="7.48237761"><ele></ele><time>2014-4-27T11:45:3Z</time></trkpt>
<trkpt lat="46.15519037" lon="7.48240468"><ele></ele><time>2014-4-27T11:45:6Z</time></trkpt>
<trkpt lat="46.15520672" lon="7.48244726"><ele></ele><time>2014-4-27T11:45:9Z</time></trkpt>
<trkpt lat="46.15524259" lon="7.48247207"><ele></ele><time>2014-4-27T11:45:12Z</time></trkpt>
<trkpt lat="46.15526363" lon="7.48250074"><ele></ele><time>2014-4-27T11:45:15Z</time></trkpt>
<trkpt lat="46.15529481" lon="7.48250417"><ele></ele><time>2014-4-27T11:45:18Z</time></trkpt>
<trkpt lat="46.15533270" lon="7.48250686"><ele></ele><time>2014-4-27T11:45:21Z</time></trkpt>
<trkpt lat="46.15534821" lon="7.48254038"><ele></ele><time>2014-4-27T11:45:24Z</time></trkpt>
<trkpt lat="46.15533890" lon="7.48259302"><ele></ele><time>2014-4-27T11:45:27Z</time></trkpt>
<trkpt lat="46.15533999" lon="7.48266888"><ele></ele><time>2014-4-27T11:45:30Z</time></trkpt>
<trkpt lat="46.15530613" lon="7.48274641"><ele></ele><time>2014-4-27T11:45:33Z</time></trkpt>
<trkpt lat="46.15527067" lon="7.48279796"><ele></ele><time>2014-4-27T11:45:36Z</time></trkpt>
<trkpt lat="46.15526866" lon="7.48281037"><ele></ele><time>2014-4-27T11:45:39Z</time></trkpt>
<trkpt lat="46.15526137" lon="7.48282009"><ele></ele><time>2014-4-27T11:45:42Z</time></trkpt>
<trkpt lat="46.15525978" lon="7.48283300"><ele></ele><time>2014-4-27T11:45:45Z</time></trkpt>
<trkpt lat="46.15524880" lon="7.48284523"><ele></ele><time>2014-4-27T11:45:48Z</time></trkpt>
<trkpt lat="46.15524603" lon="7.48283886"><ele></ele><time>2014-4-27T11:45:51Z</time></trkpt>
<trkpt lat="46.15524519" lon="7.48283920"><ele></ele><time>2014-4-27T11:45:54Z</time></trkpt>
<trkpt lat="46.15524092" lon="7.48284565"><ele></ele><time>2014-4-27T11:45:57Z</time></trkpt>
<trkpt lat="46.15525240" lon="7.48282805"><ele></ele><time>2014-4-27T11:46:0Z</time></trkpt>
<trkpt lat="46.15524922" lon="7.48282596"><ele></ele><time>2014-4-27T11:46:3Z</time></trkpt>
<trkpt lat="46.15524008" lon="7.48281539"><ele></ele><time>2014-4-27T11:46:6Z</time></trkpt>
<trkpt lat="46.15523103" lon="7.48280953"><ele></ele><time>2014-4-27T11:46:9Z</time></trkpt>
<trkpt lat="46.15523539" lon="7.48281757"><ele></ele><time>2014-4-27T11:46:12Z</time></trkpt>
<trkpt lat="46.15523715" lon="7.48281933"><ele></ele><time>2014-4-27T11:46:15Z</time></trkpt>
<trkpt lat="46.15521560" lon="7.48283652"><ele></ele><time>2014-4-27T11:46:18Z</time></trkpt>
<trkpt lat="46.15523471" lon="7.48280668"><ele></ele><time>2014-4-27T11:46:21Z</time></trkpt>
<trkpt lat="46.15523782" lon="7.48279813"><ele></ele><time>2014-4-27T11:46:24Z</time></trkpt>
<trkpt lat="46.15525064" lon="7.48279075"><ele></ele><time>2014-4-27T11:46:27Z</time></trkpt>
<trkpt lat="46.15526137" lon="7.48281548"><ele></ele><time>2014-4-27T11:46:30Z</time></trkpt>
<trkpt lat="46.15523438" lon="7.48280911"><ele></ele><time>2014-4-27T11:46:33Z</time></trkpt>
<trkpt lat="46.15525022" lon="7.48280710"><ele></ele><time>2014-4-27T11:46:36Z</time></trkpt>
<trkpt lat="46.15524947" lon="7.48281078"><ele></ele><time>2014-4-27T11:46:39Z</time></trkpt>
<trkpt lat="46.15524452" lon="7.48282126"><ele></ele><time>2014-4-27T11:46:42Z</time></trkpt>
<trkpt lat="46.15524586" lon="7.48282721"><ele></ele><time>2014-4-27T11:46:45Z</time></trkpt>
<trkpt lat="46.15524176" lon="7.48282931"><ele></ele><time>2014-4-27T11:46:48Z</time></trkpt>
<trkpt lat="46.15524058" lon="7.48282881"><ele></ele><time>2014-4-27T11:46:51Z</time></trkpt>
<trkpt lat="46.15524771" lon="7.48280752"><ele></ele><time>2014-4-27T11:46:54Z</time></trkpt>
<trkpt lat="46.15524217" lon="7.48280383"><ele></ele><time>2014-4-27T11:46:57Z</time></trkpt>
<trkpt lat="46.15524427" lon="7.48280961"><ele></ele><time>2014-4-27T11:47:0Z</time></trkpt>
<trkpt lat="46.15524058" lon="7.48281548"><ele></ele><time>2014-4-27T11:47:3Z</time></trkpt>
<trkpt lat="46.15522902" lon="7.48280500"><ele></ele><time>2014-4-27T11:47:6Z</time></trkpt>
<trkpt lat="46.15524226" lon="7.48278899"><ele></ele><time>2014-4-27T11:47:9Z</time></trkpt>
<trkpt lat="46.15524519" lon="7.48279293"><ele></ele><time>2014-4-27T11:47:12Z</time></trkpt>
<trkpt lat="46.15523404" lon="7.48278606"><ele></ele><time>2014-4-27T11:47:15Z</time></trkpt>
<trkpt lat="46.15521963" lon="7.48277650"><ele></ele><time>2014-4-27T11:47:18Z</time></trkpt>
<trkpt lat="46.15521569" lon="7.48278690"><ele></ele><time>2014-4-27T11:47:21Z</time></trkpt>
<trkpt lat="46.15522432" lon="7.48278765"><ele></ele><time>2014-4-27T11:47:24Z</time></trkpt>
<trkpt lat="46.15523304" lon="7.48278882"><ele></ele><time>2014-4-27T11:47:27Z</time></trkpt>
<trkpt lat="46.15526296" lon="7.48279159"><ele></ele><time>2014-4-27T11:47:30Z</time></trkpt>
<trkpt lat="46.15529783" lon="7.48280123"><ele></ele><time>2014-4-27T11:47:33Z</time></trkpt>
<trkpt lat="46.15528199" lon="7.48278614"><ele></ele><time>2014-4-27T11:47:36Z</time></trkpt>
<trkpt lat="46.15525869" lon="7.48277768"><ele></ele><time>2014-4-27T11:47:39Z</time></trkpt>
<trkpt lat="46.15525827" lon="7.48271624"><ele></ele><time>2014-4-27T11:47:42Z</time></trkpt>
<trkpt lat="46.15529163" lon="7.48263870"><ele></ele><time>2014-4-27T11:47:45Z</time></trkpt>
<trkpt lat="46.15531141" lon="7.48260342"><ele></ele><time>2014-4-27T11:47:48Z</time></trkpt>
<trkpt lat="46.15532532" lon="7.48250300"><ele></ele><time>2014-4-27T11:47:51Z</time></trkpt>
<trkpt lat="46.15527252" lon="7.48248942"><ele></ele><time>2014-4-27T11:47:54Z</time></trkpt>
<trkpt lat="46.15523170" lon="7.48247115"><ele></ele><time>2014-4-27T11:47:57Z</time></trkpt>
<trkpt lat="46.15518501" lon="7.48242421"><ele></ele><time>2014-4-27T11:48:0Z</time></trkpt>
<trkpt lat="46.15515819" lon="7.48238046"><ele></ele><time>2014-4-27T11:48:3Z</time></trkpt>
<trkpt lat="46.15509859" lon="7.48234316"><ele></ele><time>2014-4-27T11:48:6Z</time></trkpt>
<trkpt lat="46.15502835" lon="7.48234358"><ele></ele><time>2014-4-27T11:48:9Z</time></trkpt>
<trkpt lat="46.15497152" lon="7.48230209"><ele></ele><time>2014-4-27T11:48:12Z</time></trkpt>
<trkpt lat="46.15491528" lon="7.48229345"><ele></ele><time>2014-4-27T11:48:15Z</time></trkpt>
<trkpt lat="46.15489374" lon="7.48230888"><ele></ele><time>2014-4-27T11:48:18Z</time></trkpt>
<trkpt lat="46.15479232" lon="7.48223646"><ele></ele><time>2014-4-27T11:48:21Z</time></trkpt>
<trkpt lat="46.15479190" lon="7.48216580"><ele></ele><time>2014-4-27T11:48:24Z</time></trkpt>
<trkpt lat="46.15487153" lon="7.48198567"><ele></ele><time>2014-4-27T11:48:27Z</time></trkpt>
<trkpt lat="46.15496515" lon="7.48180831"><ele></ele><time>2014-4-27T11:48:30Z</time></trkpt>
<trkpt lat="46.15501628" lon="7.48161335"><ele></ele><time>2014-4-27T11:48:33Z</time></trkpt>
<trkpt lat="46.15507135" lon="7.48141243"><ele></ele><time>2014-4-27T11:48:36Z</time></trkpt>
<trkpt lat="46.15515961" lon="7.48128779"><ele></ele><time>2014-4-27T11:48:39Z</time></trkpt>
<trkpt lat="46.15525207" lon="7.48116106"><ele></ele><time>2014-4-27T11:48:42Z</time></trkpt>
<trkpt lat="46.15535692" lon="7.48098948"><ele></ele><time>2014-4-27T11:48:45Z</time></trkpt>
<trkpt lat="46.15543462" lon="7.48079385"><ele></ele><time>2014-4-27T11:48:48Z</time></trkpt>
<trkpt lat="46.15547804" lon="7.48053535"><ele></ele><time>2014-4-27T11:48:51Z</time></trkpt>
<trkpt lat="46.15549623" lon="7.48036360"><ele></ele><time>2014-4-27T11:48:54Z</time></trkpt>
<trkpt lat="46.15554778" lon="7.48012849"><ele></ele><time>2014-4-27T11:48:57Z</time></trkpt>
<trkpt lat="46.15552942" lon="7.47993981"><ele></ele><time>2014-4-27T11:49:0Z</time></trkpt>
<trkpt lat="46.15547217" lon="7.47978919"><ele></ele><time>2014-4-27T11:49:3Z</time></trkpt>
<trkpt lat="46.15546647" lon="7.47977855"><ele></ele><time>2014-4-27T11:49:6Z</time></trkpt>
<trkpt lat="46.15545474" lon="7.47977167"><ele></ele><time>2014-4-27T11:49:9Z</time></trkpt>
<trkpt lat="46.15544845" lon="7.47975558"><ele></ele><time>2014-4-27T11:49:12Z</time></trkpt>
<trkpt lat="46.15545139" lon="7.47976623"><ele></ele><time>2014-4-27T11:49:15Z</time></trkpt>
<trkpt lat="46.15546430" lon="7.47974552"><ele></ele><time>2014-4-27T11:49:18Z</time></trkpt>
<trkpt lat="46.15546212" lon="7.47974762"><ele></ele><time>2014-4-27T11:49:21Z</time></trkpt>
<trkpt lat="46.15545516" lon="7.47975265"><ele></ele><time>2014-4-27T11:49:24Z</time></trkpt>
<trkpt lat="46.15540705" lon="7.47981828"><ele></ele><time>2014-4-27T11:49:27Z</time></trkpt>
<trkpt lat="46.15529448" lon="7.47995675"><ele></ele><time>2014-4-27T11:49:30Z</time></trkpt>
<trkpt lat="46.15523715" lon="7.47991500"><ele></ele><time>2014-4-27T11:49:33Z</time></trkpt>
<trkpt lat="46.15515408" lon="7.47996027"><ele></ele><time>2014-4-27T11:49:36Z</time></trkpt>
<trkpt lat="46.15514503" lon="7.47997100"><ele></ele><time>2014-4-27T11:49:39Z</time></trkpt>
<trkpt lat="46.15510991" lon="7.48011340"><ele></ele><time>2014-4-27T11:49:42Z</time></trkpt>
<trkpt lat="46.15505836" lon="7.48026562"><ele></ele><time>2014-4-27T11:49:45Z</time></trkpt>
<trkpt lat="46.15498141" lon="7.48041683"><ele></ele><time>2014-4-27T11:49:48Z</time></trkpt>
<trkpt lat="46.15485175" lon="7.48048916"><ele></ele><time>2014-4-27T11:49:51Z</time></trkpt>
<trkpt lat="46.15472493" lon="7.48052563"><ele></ele><time>2014-4-27T11:49:54Z</time></trkpt>
<trkpt lat="46.15452468" lon="7.48061129"><ele></ele><time>2014-4-27T11:49:57Z</time></trkpt>
<trkpt lat="46.15437917" lon="7.48069804"><ele></ele><time>2014-4-27T11:50:0Z</time></trkpt>
<trkpt lat="46.15426317" lon="7.48072486"><ele></ele><time>2014-4-27T11:50:3Z</time></trkpt>
<trkpt lat="46.15411665" lon="7.48069008"><ele></ele><time>2014-4-27T11:50:6Z</time></trkpt>
<trkpt lat="46.15397005" lon="7.48066493"><ele></ele><time>2014-4-27T11:50:9Z</time></trkpt>
<trkpt lat="46.15386209" lon="7.48069176"><ele></ele><time>2014-4-27T11:50:12Z</time></trkpt>
<trkpt lat="46.15373754" lon="7.48075479"><ele></ele><time>2014-4-27T11:50:15Z</time></trkpt>
<trkpt lat="46.15362447" lon="7.48088655"><ele></ele><time>2014-4-27T11:50:18Z</time></trkpt>
<trkpt lat="46.15352958" lon="7.48089812"><ele></ele><time>2014-4-27T11:50:21Z</time></trkpt>
<trkpt lat="46.15336522" lon="7.48095637"><ele></ele><time>2014-4-27T11:50:24Z</time></trkpt>
<trkpt lat="46.15327184" lon="7.48099887"><ele></ele><time>2014-4-27T11:50:27Z</time></trkpt>
<trkpt lat="46.15317620" lon="7.48099585"><ele></ele><time>2014-4-27T11:50:30Z</time></trkpt>
<trkpt lat="46.15312122" lon="7.48102427"><ele></ele><time>2014-4-27T11:50:33Z</time></trkpt>
<trkpt lat="46.15306506" lon="7.48105612"><ele></ele><time>2014-4-27T11:50:36Z</time></trkpt>
<trkpt lat="46.15296783" lon="7.48111806"><ele></ele><time>2014-4-27T11:50:39Z</time></trkpt>
<trkpt lat="46.15292667" lon="7.48112996"><ele></ele><time>2014-4-27T11:50:42Z</time></trkpt>
<trkpt lat="46.15290631" lon="7.48116517"><ele></ele><time>2014-4-27T11:50:45Z</time></trkpt>
<trkpt lat="46.15285710" lon="7.48117975"><ele></ele><time>2014-4-27T11:50:48Z</time></trkpt>
<trkpt lat="46.15271537" lon="7.48139307"><ele></ele><time>2014-4-27T11:50:51Z</time></trkpt>
<trkpt lat="46.15270967" lon="7.48123616"><ele></ele><time>2014-4-27T11:50:54Z</time></trkpt>
<trkpt lat="46.15271880" lon="7.48118553"><ele></ele><time>2014-4-27T11:50:57Z</time></trkpt>
<trkpt lat="46.15268201" lon="7.48095428"><ele></ele><time>2014-4-27T11:51:0Z</time></trkpt>
<trkpt lat="46.15265996" lon="7.48082017"><ele></ele><time>2014-4-27T11:51:3Z</time></trkpt>
<trkpt lat="46.15268159" lon="7.48075596"><ele></ele><time>2014-4-27T11:51:6Z</time></trkpt>
<trkpt lat="46.15264739" lon="7.48065395"><ele></ele><time>2014-4-27T11:51:9Z</time></trkpt>
<trkpt lat="46.15261177" lon="7.48048807"><ele></ele><time>2014-4-27T11:51:12Z</time></trkpt>
<trkpt lat="46.15264588" lon="7.48033804"><ele></ele><time>2014-4-27T11:51:15Z</time></trkpt>
<trkpt lat="46.15254262" lon="7.48052487"><ele></ele><time>2014-4-27T11:51:18Z</time></trkpt>
<trkpt lat="46.15244346" lon="7.48062529"><ele></ele><time>2014-4-27T11:51:21Z</time></trkpt>
<trkpt lat="46.15235763" lon="7.48062587"><ele></ele><time>2014-4-27T11:51:24Z</time></trkpt>
<trkpt lat="46.15227255" lon="7.48049227"><ele></ele><time>2014-4-27T11:51:27Z</time></trkpt>
<trkpt lat="46.15215939" lon="7.48039235"><ele></ele><time>2014-4-27T11:51:30Z</time></trkpt>
<trkpt lat="46.15205554" lon="7.48027333"><ele></ele><time>2014-4-27T11:51:33Z</time></trkpt>
<trkpt lat="46.15201858" lon="7.48017417"><ele></ele><time>2014-4-27T11:51:36Z</time></trkpt>
<trkpt lat="46.15201196" lon="7.48002632"><ele></ele><time>2014-4-27T11:51:39Z</time></trkpt>
<trkpt lat="46.15196854" lon="7.47989640"><ele></ele><time>2014-4-27T11:51:42Z</time></trkpt>
<trkpt lat="46.15196678" lon="7.47970403"><ele></ele><time>2014-4-27T11:51:45Z</time></trkpt>
<trkpt lat="46.15194968" lon="7.47959088"><ele></ele><time>2014-4-27T11:51:48Z</time></trkpt>
<trkpt lat="46.15196058" lon="7.47948878"><ele></ele><time>2014-4-27T11:51:51Z</time></trkpt>
<trkpt lat="46.15198187" lon="7.47932592"><ele></ele><time>2014-4-27T11:51:54Z</time></trkpt>
<trkpt lat="46.15200668" lon="7.47911101"><ele></ele><time>2014-4-27T11:51:57Z</time></trkpt>
<trkpt lat="46.15201321" lon="7.47897246"><ele></ele><time>2014-4-27T11:52:0Z</time></trkpt>
<trkpt lat="46.15201271" lon="7.47899610"><ele></ele><time>2014-4-27T11:52:3Z</time></trkpt>
<trkpt lat="46.15195052" lon="7.47903105"><ele></ele><time>2014-4-27T11:52:6Z</time></trkpt>
<trkpt lat="46.15193996" lon="7.47904362"><ele></ele><time>2014-4-27T11:52:9Z</time></trkpt>
<trkpt lat="46.15182244" lon="7.47916038"><ele></ele><time>2014-4-27T11:52:12Z</time></trkpt>
<trkpt lat="46.15173418" lon="7.47929877"><ele></ele><time>2014-4-27T11:52:15Z</time></trkpt>
<trkpt lat="46.15162404" lon="7.47954234"><ele></ele><time>2014-4-27T11:52:18Z</time></trkpt>
<trkpt lat="46.15150971" lon="7.47987988"><ele></ele><time>2014-4-27T11:52:21Z</time></trkpt>
<trkpt lat="46.15149396" lon="7.48013629"><ele></ele><time>2014-4-27T11:52:24Z</time></trkpt>
<trkpt lat="46.15144534" lon="7.48064825"><ele></ele><time>2014-4-27T11:52:27Z</time></trkpt>
<trkpt lat="46.15127167" lon="7.48083257"><ele></ele><time>2014-4-27T11:52:30Z</time></trkpt>
<trkpt lat="46.15115256" lon="7.48095210"><ele></ele><time>2014-4-27T11:52:33Z</time></trkpt>
<trkpt lat="46.15116999" lon="7.48088554"><ele></ele><time>2014-4-27T11:52:36Z</time></trkpt>
<trkpt lat="46.15116589" lon="7.48086752"><ele></ele><time>2014-4-27T11:52:39Z</time></trkpt>
<trkpt lat="46.15111216" lon="7.48054172"><ele></ele><time>2014-4-27T11:52:42Z</time></trkpt>
<trkpt lat="46.15110529" lon="7.48036696"><ele></ele><time>2014-4-27T11:52:45Z</time></trkpt>
<trkpt lat="46.15103295" lon="7.47992297"><ele></ele><time>2014-4-27T11:52:48Z</time></trkpt>
<trkpt lat="46.15102004" lon="7.47968417"><ele></ele><time>2014-4-27T11:52:51Z</time></trkpt>
<trkpt lat="46.15104636" lon="7.47935677"><ele></ele><time>2014-4-27T11:52:54Z</time></trkpt>
<trkpt lat="46.15105500" lon="7.47903742"><ele></ele><time>2014-4-27T11:52:57Z</time></trkpt>
<trkpt lat="46.15104033" lon="7.47894295"><ele></ele><time>2014-4-27T11:53:0Z</time></trkpt>
<trkpt lat="46.15107427" lon="7.47886794"><ele></ele><time>2014-4-27T11:53:3Z</time></trkpt>
<trkpt lat="46.15108022" lon="7.47879644"><ele></ele><time>2014-4-27T11:53:6Z</time></trkpt>
<trkpt lat="46.15107645" lon="7.47876316"><ele></ele><time>2014-4-27T11:53:9Z</time></trkpt>
<trkpt lat="46.15104242" lon="7.47855127"><ele></ele><time>2014-4-27T11:53:12Z</time></trkpt>
<trkpt lat="46.15102801" lon="7.47831725"><ele></ele><time>2014-4-27T11:53:15Z</time></trkpt>
<trkpt lat="46.15102742" lon="7.47807786"><ele></ele><time>2014-4-27T11:53:18Z</time></trkpt>
<trkpt lat="46.15104779" lon="7.47786487"><ele></ele><time>2014-4-27T11:53:21Z</time></trkpt>
<trkpt lat="46.15106422" lon="7.47766974"><ele></ele><time>2014-4-27T11:53:24Z</time></trkpt>
<trkpt lat="46.15109464" lon="7.47751392"><ele></ele><time>2014-4-27T11:53:27Z</time></trkpt>
<trkpt lat="46.15117360" lon="7.47731410"><ele></ele><time>2014-4-27T11:53:30Z</time></trkpt>
<trkpt lat="46.15123236" lon="7.47712861"><ele></ele><time>2014-4-27T11:53:33Z</time></trkpt>
<trkpt lat="46.15128751" lon="7.47692007"><ele></ele><time>2014-4-27T11:53:36Z</time></trkpt>
<trkpt lat="46.15134568" lon="7.47676986"><ele></ele><time>2014-4-27T11:53:39Z</time></trkpt>
<trkpt lat="46.15135934" lon="7.47672779"><ele></ele><time>2014-4-27T11:53:42Z</time></trkpt>
<trkpt lat="46.15136060" lon="7.47668311"><ele></ele><time>2014-4-27T11:53:45Z</time></trkpt>
<trkpt lat="46.15136479" lon="7.47663860"><ele></ele><time>2014-4-27T11:53:48Z</time></trkpt>
<trkpt lat="46.15138985" lon="7.47660667"><ele></ele><time>2014-4-27T11:53:51Z</time></trkpt>
<trkpt lat="46.15148809" lon="7.47644783"><ele></ele><time>2014-4-27T11:53:54Z</time></trkpt>
<trkpt lat="46.15159672" lon="7.47629075"><ele></ele><time>2014-4-27T11:53:57Z</time></trkpt>
<trkpt lat="46.15170610" lon="7.47605983"><ele></ele><time>2014-4-27T11:54:0Z</time></trkpt>
<trkpt lat="46.15183971" lon="7.47590854"><ele></ele><time>2014-4-27T11:54:3Z</time></trkpt>
<trkpt lat="46.15198463" lon="7.47578449"><ele></ele><time>2014-4-27T11:54:6Z</time></trkpt>
<trkpt lat="46.15203442" lon="7.47562355"><ele></ele><time>2014-4-27T11:54:9Z</time></trkpt>
<trkpt lat="46.15208295" lon="7.47547058"><ele></ele><time>2014-4-27T11:54:12Z</time></trkpt>
<trkpt lat="46.15218018" lon="7.47531745"><ele></ele><time>2014-4-27T11:54:15Z</time></trkpt>
<trkpt lat="46.15229560" lon="7.47516993"><ele></ele><time>2014-4-27T11:54:18Z</time></trkpt>
<trkpt lat="46.15240909" lon="7.47504135"><ele></ele><time>2014-4-27T11:54:21Z</time></trkpt>
<trkpt lat="46.15255041" lon="7.47496499"><ele></ele><time>2014-4-27T11:54:24Z</time></trkpt>
<trkpt lat="46.15271872" lon="7.47493733"><ele></ele><time>2014-4-27T11:54:27Z</time></trkpt>
<trkpt lat="46.15288066" lon="7.47495669"><ele></ele><time>2014-4-27T11:54:30Z</time></trkpt>
<trkpt lat="46.15302038" lon="7.47497153"><ele></ele><time>2014-4-27T11:54:33Z</time></trkpt>
<trkpt lat="46.15323538" lon="7.47491528"><ele></ele><time>2014-4-27T11:54:36Z</time></trkpt>
<trkpt lat="46.15335172" lon="7.47485116"><ele></ele><time>2014-4-27T11:54:39Z</time></trkpt>
<trkpt lat="46.15342179" lon="7.47465855"><ele></ele><time>2014-4-27T11:54:42Z</time></trkpt>
<trkpt lat="46.15345457" lon="7.47436417"><ele></ele><time>2014-4-27T11:54:45Z</time></trkpt>
<trkpt lat="46.15345331" lon="7.47410383"><ele></ele><time>2014-4-27T11:54:48Z</time></trkpt>
<trkpt lat="46.15344023" lon="7.47386604"><ele></ele><time>2014-4-27T11:54:51Z</time></trkpt>
<trkpt lat="46.15345381" lon="7.47370284"><ele></ele><time>2014-4-27T11:54:54Z</time></trkpt>
<trkpt lat="46.15349455" lon="7.47347318"><ele></ele><time>2014-4-27T11:54:57Z</time></trkpt>
<trkpt lat="46.15355012" lon="7.47328584"><ele></ele><time>2014-4-27T11:55:0Z</time></trkpt>
<trkpt lat="46.15362631" lon="7.47312541"><ele></ele><time>2014-4-27T11:55:3Z</time></trkpt>
<trkpt lat="46.15374676" lon="7.47303681"><ele></ele><time>2014-4-27T11:55:6Z</time></trkpt>
<trkpt lat="46.15388833" lon="7.47300371"><ele></ele><time>2014-4-27T11:55:9Z</time></trkpt>
<trkpt lat="46.15402236" lon="7.47301226"><ele></ele><time>2014-4-27T11:55:12Z</time></trkpt>
<trkpt lat="46.15415060" lon="7.47301460"><ele></ele><time>2014-4-27T11:55:15Z</time></trkpt>
<trkpt lat="46.15427733" lon="7.47296398"><ele></ele><time>2014-4-27T11:55:18Z</time></trkpt>
<trkpt lat="46.15442921" lon="7.47286180"><ele></ele><time>2014-4-27T11:55:21Z</time></trkpt>
<trkpt lat="46.15454824" lon="7.47283825"><ele></ele><time>2014-4-27T11:55:24Z</time></trkpt>
<trkpt lat="46.15464823" lon="7.47276440"><ele></ele><time>2014-4-27T11:55:27Z</time></trkpt>
<trkpt lat="46.15480866" lon="7.47261009"><ele></ele><time>2014-4-27T11:55:30Z</time></trkpt>
<trkpt lat="46.15486625" lon="7.47238127"><ele></ele><time>2014-4-27T11:55:33Z</time></trkpt>
<trkpt lat="46.15489600" lon="7.47221438"><ele></ele><time>2014-4-27T11:55:36Z</time></trkpt>
<trkpt lat="46.15496884" lon="7.47208186"><ele></ele><time>2014-4-27T11:55:39Z</time></trkpt>
<trkpt lat="46.15505987" lon="7.47191054"><ele></ele><time>2014-4-27T11:55:42Z</time></trkpt>
<trkpt lat="46.15516783" lon="7.47177718"><ele></ele><time>2014-4-27T11:55:45Z</time></trkpt>
<trkpt lat="46.15529758" lon="7.47161591"><ele></ele><time>2014-4-27T11:55:48Z</time></trkpt>
<trkpt lat="46.15541275" lon="7.47149186"><ele></ele><time>2014-4-27T11:55:51Z</time></trkpt>
<trkpt lat="46.15551685" lon="7.47136513"><ele></ele><time>2014-4-27T11:55:54Z</time></trkpt>
<trkpt lat="46.15561400" lon="7.47126563"><ele></ele><time>2014-4-27T11:55:57Z</time></trkpt>
<trkpt lat="46.15573478" lon="7.47121995"><ele></ele><time>2014-4-27T11:56:0Z</time></trkpt>
<trkpt lat="46.15578180" lon="7.47116053"><ele></ele><time>2014-4-27T11:56:3Z</time></trkpt>
<trkpt lat="46.15592463" lon="7.47093086"><ele></ele><time>2014-4-27T11:56:6Z</time></trkpt>
<trkpt lat="46.15600652" lon="7.47065459"><ele></ele><time>2014-4-27T11:56:9Z</time></trkpt>
<trkpt lat="46.15606251" lon="7.47049416"><ele></ele><time>2014-4-27T11:56:12Z</time></trkpt>
<trkpt lat="46.15614390" lon="7.47032183"><ele></ele><time>2014-4-27T11:56:15Z</time></trkpt>
<trkpt lat="46.15625781" lon="7.47011949"><ele></ele><time>2014-4-27T11:56:18Z</time></trkpt>
<trkpt lat="46.15636359" lon="7.46997423"><ele></ele><time>2014-4-27T11:56:21Z</time></trkpt>
<trkpt lat="46.15642679" lon="7.46985211"><ele></ele><time>2014-4-27T11:56:24Z</time></trkpt>
<trkpt lat="46.15652880" lon="7.46968112"><ele></ele><time>2014-4-27T11:56:27Z</time></trkpt>
<trkpt lat="46.15661438" lon="7.46948565"><ele></ele><time>2014-4-27T11:56:30Z</time></trkpt>
<trkpt lat="46.15683205" lon="7.46914015"><ele></ele><time>2014-4-27T11:56:33Z</time></trkpt>
<trkpt lat="46.15693113" lon="7.46906706"><ele></ele><time>2014-4-27T11:56:36Z</time></trkpt>
<trkpt lat="46.15705501" lon="7.46893262"><ele></ele><time>2014-4-27T11:56:39Z</time></trkpt>
<trkpt lat="46.15716834" lon="7.46880068"><ele></ele><time>2014-4-27T11:56:42Z</time></trkpt>
<trkpt lat="46.15719826" lon="7.46878593"><ele></ele><time>2014-4-27T11:56:45Z</time></trkpt>
<trkpt lat="46.15727755" lon="7.46874620"><ele></ele><time>2014-4-27T11:56:48Z</time></trkpt>
<trkpt lat="46.15729071" lon="7.46873824"><ele></ele><time>2014-4-27T11:56:51Z</time></trkpt>
<trkpt lat="46.15727319" lon="7.46868451"><ele></ele><time>2014-4-27T11:56:54Z</time></trkpt>
<trkpt lat="46.15729884" lon="7.46868024"><ele></ele><time>2014-4-27T11:56:57Z</time></trkpt>
<trkpt lat="46.15733623" lon="7.46867822"><ele></ele><time>2014-4-27T11:57:0Z</time></trkpt>
<trkpt lat="46.15729415" lon="7.46848594"><ele></ele><time>2014-4-27T11:57:3Z</time></trkpt>
<trkpt lat="46.15755508" lon="7.46859382"><ele></ele><time>2014-4-27T11:57:6Z</time></trkpt>
<trkpt lat="46.15776110" lon="7.46860245"><ele></ele><time>2014-4-27T11:57:9Z</time></trkpt>
<trkpt lat="46.15781156" lon="7.46852634"><ele></ele><time>2014-4-27T11:57:12Z</time></trkpt>
<trkpt lat="46.15784618" lon="7.46846859"><ele></ele><time>2014-4-27T11:57:15Z</time></trkpt>
<trkpt lat="46.15783721" lon="7.46822820"><ele></ele><time>2014-4-27T11:57:18Z</time></trkpt>
<trkpt lat="46.15783797" lon="7.46799233"><ele></ele><time>2014-4-27T11:57:21Z</time></trkpt>
<trkpt lat="46.15778508" lon="7.46773727"><ele></ele><time>2014-4-27T11:57:24Z</time></trkpt>
<trkpt lat="46.15769631" lon="7.46758548"><ele></ele><time>2014-4-27T11:57:27Z</time></trkpt>
<trkpt lat="46.15761149" lon="7.46741122"><ele></ele><time>2014-4-27T11:57:30Z</time></trkpt>
<trkpt lat="46.15762096" lon="7.46724584"><ele></ele><time>2014-4-27T11:57:33Z</time></trkpt>
<trkpt lat="46.15772867" lon="7.46704954"><ele></ele><time>2014-4-27T11:57:36Z</time></trkpt>
<trkpt lat="46.15787971" lon="7.46695566"><ele></ele><time>2014-4-27T11:57:39Z</time></trkpt>
<trkpt lat="46.15803603" lon="7.46681602"><ele></ele><time>2014-4-27T11:57:42Z</time></trkpt>
<trkpt lat="46.15810518" lon="7.46673086"><ele></ele><time>2014-4-27T11:57:45Z</time></trkpt>
<trkpt lat="46.15810912" lon="7.46670454"><ele></ele><time>2014-4-27T11:57:48Z</time></trkpt>
<trkpt lat="46.15809269" lon="7.46667646"><ele></ele><time>2014-4-27T11:57:51Z</time></trkpt>
<trkpt lat="46.15808247" lon="7.46662105"><ele></ele><time>2014-4-27T11:57:54Z</time></trkpt>
<trkpt lat="46.15798901" lon="7.46666682"><ele></ele><time>2014-4-27T11:57:57Z</time></trkpt>
<trkpt lat="46.15789211" lon="7.46670848"><ele></ele><time>2014-4-27T11:58:0Z</time></trkpt>
<trkpt lat="46.15776320" lon="7.46669197"><ele></ele><time>2014-4-27T11:58:3Z</time></trkpt>
<trkpt lat="46.15757276" lon="7.46670831"><ele></ele><time>2014-4-27T11:58:6Z</time></trkpt>
<trkpt lat="46.15750068" lon="7.46673974"><ele></ele><time>2014-4-27T11:58:9Z</time></trkpt>
<trkpt lat="46.15746992" lon="7.46674628"><ele></ele><time>2014-4-27T11:58:12Z</time></trkpt>
<trkpt lat="46.15746078" lon="7.46668509"><ele></ele><time>2014-4-27T11:58:15Z</time></trkpt>
<trkpt lat="46.15747788" lon="7.46666003"><ele></ele><time>2014-4-27T11:58:18Z</time></trkpt>
<trkpt lat="46.15749875" lon="7.46656775"><ele></ele><time>2014-4-27T11:58:21Z</time></trkpt>
<trkpt lat="46.15747327" lon="7.46657185"><ele></ele><time>2014-4-27T11:58:24Z</time></trkpt>
<trkpt lat="46.15735760" lon="7.46658065"><ele></ele><time>2014-4-27T11:58:27Z</time></trkpt>
<trkpt lat="46.15728116" lon="7.46647328"><ele></ele><time>2014-4-27T11:58:30Z</time></trkpt>
<trkpt lat="46.15722114" lon="7.46628486"><ele></ele><time>2014-4-27T11:58:33Z</time></trkpt>
<trkpt lat="46.15719398" lon="7.46621596"><ele></ele><time>2014-4-27T11:58:36Z</time></trkpt>
<trkpt lat="46.15710463" lon="7.46605528"><ele></ele><time>2014-4-27T11:58:39Z</time></trkpt>
<trkpt lat="46.15701855" lon="7.46603231"><ele></ele><time>2014-4-27T11:58:42Z</time></trkpt>
<trkpt lat="46.15692928" lon="7.46601144"><ele></ele><time>2014-4-27T11:58:45Z</time></trkpt>
<trkpt lat="46.15681571" lon="7.46602317"><ele></ele><time>2014-4-27T11:58:48Z</time></trkpt>
<trkpt lat="46.15677464" lon="7.46606458"><ele></ele><time>2014-4-27T11:58:51Z</time></trkpt>
<trkpt lat="46.15671353" lon="7.46614756"><ele></ele><time>2014-4-27T11:58:54Z</time></trkpt>
<trkpt lat="46.15663500" lon="7.46627572"><ele></ele><time>2014-4-27T11:58:57Z</time></trkpt>
<trkpt lat="46.15659619" lon="7.46635200"><ele></ele><time>2014-4-27T11:59:0Z</time></trkpt>
<trkpt lat="46.15652989" lon="7.46646750"><ele></ele><time>2014-4-27T11:59:3Z</time></trkpt>
<trkpt lat="46.15649560" lon="7.46648988"><ele></ele><time>2014-4-27T11:59:6Z</time></trkpt>
<trkpt lat="46.15631623" lon="7.46656884"><ele></ele><time>2014-4-27T11:59:9Z</time></trkpt>
<trkpt lat="46.15613258" lon="7.46663472"><ele></ele><time>2014-4-27T11:59:12Z</time></trkpt>
<trkpt lat="46.15598682" lon="7.46665626"><ele></ele><time>2014-4-27T11:59:15Z</time></trkpt>
<trkpt lat="46.15585422" lon="7.46668199"><ele></ele><time>2014-4-27T11:59:18Z</time></trkpt>
<trkpt lat="46.15570963" lon="7.46675927"><ele></ele><time>2014-4-27T11:59:21Z</time></trkpt>
<trkpt lat="46.15555122" lon="7.46684058"><ele></ele><time>2014-4-27T11:59:24Z</time></trkpt>
<trkpt lat="46.15544208" lon="7.46690780"><ele></ele><time>2014-4-27T11:59:27Z</time></trkpt>
<trkpt lat="46.15536698" lon="7.46703520"><ele></ele><time>2014-4-27T11:59:30Z</time></trkpt>
<trkpt lat="46.15530093" lon="7.46713746"><ele></ele><time>2014-4-27T11:59:33Z</time></trkpt>
<trkpt lat="46.15520085" lon="7.46726738"><ele></ele><time>2014-4-27T11:59:36Z</time></trkpt>
<trkpt lat="46.15508996" lon="7.46734450"><ele></ele><time>2014-4-27T11:59:39Z</time></trkpt>
<trkpt lat="46.15494135" lon="7.46739294"><ele></ele><time>2014-4-27T11:59:42Z</time></trkpt>
<trkpt lat="46.15484973" lon="7.46745707"><ele></ele><time>2014-4-27T11:59:45Z</time></trkpt>
<trkpt lat="46.15475552" lon="7.46748690"><ele></ele><time>2014-4-27T11:59:48Z</time></trkpt>
<trkpt lat="46.15462887" lon="7.46752990"><ele></ele><time>2014-4-27T11:59:51Z</time></trkpt>
<trkpt lat="46.15453642" lon="7.46752990"><ele></ele><time>2014-4-27T11:59:54Z</time></trkpt>
<trkpt lat="46.15446341" lon="7.46749906"><ele></ele><time>2014-4-27T11:59:57Z</time></trkpt>
<trkpt lat="46.15439577" lon="7.46747492"><ele></ele><time>2014-4-27T12:0:0Z</time></trkpt>
<trkpt lat="46.15428873" lon="7.46741901"><ele></ele><time>2014-4-27T12:0:3Z</time></trkpt>
<trkpt lat="46.15420382" lon="7.46737056"><ele></ele><time>2014-4-27T12:0:6Z</time></trkpt>
<trkpt lat="46.15415554" lon="7.46735405"><ele></ele><time>2014-4-27T12:0:9Z</time></trkpt>
<trkpt lat="46.15411707" lon="7.46731340"><ele></ele><time>2014-4-27T12:0:12Z</time></trkpt>
<trkpt lat="46.15406728" lon="7.46727903"><ele></ele><time>2014-4-27T12:0:15Z</time></trkpt>
<trkpt lat="46.15402655" lon="7.46722061"><ele></ele><time>2014-4-27T12:0:18Z</time></trkpt>
<trkpt lat="46.15400199" lon="7.46719547"><ele></ele><time>2014-4-27T12:0:21Z</time></trkpt>
<trkpt lat="46.15396167" lon="7.46716403"><ele></ele><time>2014-4-27T12:0:24Z</time></trkpt>
<trkpt lat="46.15387324" lon="7.46714635"><ele></ele><time>2014-4-27T12:0:27Z</time></trkpt>
<trkpt lat="46.15383552" lon="7.46710896"><ele></ele><time>2014-4-27T12:0:30Z</time></trkpt>
<trkpt lat="46.15376662" lon="7.46704149"><ele></ele><time>2014-4-27T12:0:33Z</time></trkpt>
<trkpt lat="46.15370317" lon="7.46700042"><ele></ele><time>2014-4-27T12:0:36Z</time></trkpt>
<trkpt lat="46.15371323" lon="7.46692171"><ele></ele><time>2014-4-27T12:0:39Z</time></trkpt>
<trkpt lat="46.15370443" lon="7.46681945"><ele></ele><time>2014-4-27T12:0:42Z</time></trkpt>
<trkpt lat="46.15370066" lon="7.46680898"><ele></ele><time>2014-4-27T12:0:45Z</time></trkpt>
<trkpt lat="46.15370133" lon="7.46681023"><ele></ele><time>2014-4-27T12:0:48Z</time></trkpt>
<trkpt lat="46.15369328" lon="7.46681199"><ele></ele><time>2014-4-27T12:0:51Z</time></trkpt>
<trkpt lat="46.15370653" lon="7.46681417"><ele></ele><time>2014-4-27T12:0:54Z</time></trkpt>
<trkpt lat="46.15370535" lon="7.46681644"><ele></ele><time>2014-4-27T12:0:57Z</time></trkpt>
<trkpt lat="46.15366235" lon="7.46687570"><ele></ele><time>2014-4-27T12:1:0Z</time></trkpt>
<trkpt lat="46.15363536" lon="7.46690596"><ele></ele><time>2014-4-27T12:1:3Z</time></trkpt>
<trkpt lat="46.15358868" lon="7.46705054"><ele></ele><time>2014-4-27T12:1:6Z</time></trkpt>
<trkpt lat="46.15358147" lon="7.46721567"><ele></ele><time>2014-4-27T12:1:9Z</time></trkpt>
<trkpt lat="46.15357091" lon="7.46741591"><ele></ele><time>2014-4-27T12:1:12Z</time></trkpt>
<trkpt lat="46.15352145" lon="7.46758355"><ele></ele><time>2014-4-27T12:1:15Z</time></trkpt>
<trkpt lat="46.15342339" lon="7.46776854"><ele></ele><time>2014-4-27T12:1:18Z</time></trkpt>
<trkpt lat="46.15334686" lon="7.46791773"><ele></ele><time>2014-4-27T12:1:21Z</time></trkpt>
<trkpt lat="46.15332465" lon="7.46794171"><ele></ele><time>2014-4-27T12:1:24Z</time></trkpt>
<trkpt lat="46.15333940" lon="7.46795277"><ele></ele><time>2014-4-27T12:1:27Z</time></trkpt>
<trkpt lat="46.15334678" lon="7.46794925"><ele></ele><time>2014-4-27T12:1:30Z</time></trkpt>
</trkseg></trk></gpx>